createdAt,value
2018-01-01T00:00:31.258Z,0
2018-01-01T00:01:31.164Z,0
2018-01-01T00:02:30.841Z,0
2018-01-01T00:03:30.843Z,0
2018-01-01T00:04:31.119Z,0
2018-01-01T00:05:30.823Z,0
2018-01-01T00:06:30.834Z,0
2018-01-01T00:07:30.814Z,0
2018-01-01T00:08:30.523Z,0
2018-01-01T00:09:31.352Z,0
2018-01-01T00:10:30.485Z,0
2018-01-01T00:11:31.007Z,0
2018-01-01T00:12:31.020Z,0
2018-01-01T00:13:30.981Z,0
2018-01-01T00:14:30.428Z,0
2018-01-01T00:15:30.943Z,0
2018-01-01T00:16:30.936Z,0
2018-01-01T00:17:30.930Z,0
2018-01-01T00:18:31.178Z,0
2018-01-01T00:19:30.629Z,0
2018-01-01T00:20:31.163Z,0
2018-01-01T00:21:31.145Z,0
2018-01-01T00:22:30.618Z,0
2018-01-01T00:23:30.846Z,0
2018-01-01T00:24:30.583Z,0
2018-01-01T00:25:30.842Z,0
2018-01-01T00:26:30.537Z,0
2018-01-01T00:27:30.797Z,0
2018-01-01T00:28:30.297Z,0
2018-01-01T00:29:30.772Z,0
2018-01-01T00:30:30.217Z,0
2018-01-01T00:31:30.519Z,0
2018-01-01T00:32:30.740Z,0
2018-01-01T00:33:30.990Z,0
2018-01-01T00:34:30.722Z,0
2018-01-01T00:35:30.749Z,0
2018-01-01T00:36:30.429Z,0
2018-01-01T00:37:30.943Z,0
2018-01-01T00:38:30.936Z,0
2018-01-01T00:39:30.648Z,0
2018-01-01T00:40:30.641Z,0
2018-01-01T00:41:30.625Z,0
2018-01-01T00:42:30.351Z,0
2018-01-01T00:43:31.142Z,0
2018-01-01T00:44:30.320Z,0
2018-01-01T00:45:30.301Z,0
2018-01-01T00:46:30.295Z,0
2018-01-01T00:47:30.275Z,0
2018-01-01T00:48:30.565Z,0
2018-01-01T00:49:30.268Z,0
2018-01-01T00:50:30.565Z,0
2018-01-01T00:51:29.976Z,0
2018-01-01T00:52:30.246Z,0
2018-01-01T00:53:30.471Z,0
2018-01-01T00:54:30.199Z,0
2018-01-01T00:55:30.753Z,0
2018-01-01T00:56:30.164Z,0
2018-01-01T00:57:30.701Z,0
2018-01-01T00:58:30.138Z,0
2018-01-01T00:59:30.392Z,0
2018-01-01T01:00:30.396Z,0
2018-01-01T01:01:30.100Z,0
2018-01-01T01:02:30.092Z,0
2018-01-01T01:03:30.089Z,0
2018-01-01T01:04:30.361Z,0
2018-01-01T01:05:29.803Z,0
2018-01-01T01:06:30.040Z,0
2018-01-01T01:07:29.758Z,0
2018-01-01T01:08:30.029Z,0
2018-01-01T01:09:29.732Z,0
2018-01-01T01:10:29.993Z,0
2018-01-01T01:11:30.250Z,0
2018-01-01T01:12:29.990Z,0
2018-01-01T01:13:29.688Z,0
2018-01-01T01:14:30.528Z,0
2018-01-01T01:15:29.926Z,0
2018-01-01T01:16:30.180Z,0
2018-01-01T01:17:30.213Z,0
2018-01-01T01:18:29.893Z,0
2018-01-01T01:19:30.151Z,0
2018-01-01T01:20:29.872Z,0
2018-01-01T01:21:30.120Z,0
2018-01-01T01:22:29.854Z,0
2018-01-01T01:23:29.830Z,0
2018-01-01T01:24:29.812Z,0
2018-01-01T01:25:29.802Z,0
2018-01-01T01:26:30.340Z,0
2018-01-01T01:27:29.778Z,0
2018-01-01T01:28:29.770Z,0
2018-01-01T01:29:30.298Z,0
2018-01-01T01:30:29.743Z,0
2018-01-01T01:31:29.731Z,0
2018-01-01T01:32:29.712Z,0
2018-01-01T01:33:29.739Z,0
2018-01-01T01:34:29.435Z,0
2018-01-01T01:35:29.674Z,0
2018-01-01T01:36:29.678Z,0
2018-01-01T01:37:29.939Z,0
2018-01-01T01:38:29.909Z,0
2018-01-01T01:39:29.648Z,0
2018-01-01T01:40:29.635Z,0
2018-01-01T01:41:29.611Z,0
2018-01-01T01:42:29.320Z,0
2018-01-01T01:43:29.309Z,0
2018-01-01T01:44:29.302Z,0
2018-01-01T01:45:29.553Z,0
2018-01-01T01:46:30.102Z,0
2018-01-01T01:47:29.253Z,0
2018-01-01T01:48:29.521Z,0
2018-01-01T01:49:29.770Z,0
2018-01-01T01:50:29.219Z,0
2018-01-01T01:51:29.748Z,0
2018-01-01T01:52:29.463Z,0
2018-01-01T01:53:29.185Z,0
2018-01-01T01:54:29.730Z,0
2018-01-01T01:55:29.705Z,0
2018-01-01T01:56:29.959Z,0
2018-01-01T01:57:29.704Z,0
2018-01-01T01:58:29.705Z,0
2018-01-01T01:59:29.179Z,0
2018-01-01T02:00:29.957Z,0
2018-01-01T02:01:29.357Z,0
2018-01-01T02:02:29.105Z,0
2018-01-01T02:03:29.600Z,0
2018-01-01T02:04:29.322Z,0
2018-01-01T02:05:29.037Z,0
2018-01-01T02:06:29.025Z,0
2018-01-01T02:07:29.032Z,0
2018-01-01T02:08:29.270Z,0
2018-01-01T02:09:29.254Z,0
2018-01-01T02:10:29.535Z,0
2018-01-01T02:11:28.962Z,0
2018-01-01T02:12:29.489Z,0
2018-01-01T02:13:29.223Z,0
2018-01-01T02:14:29.469Z,0
2018-01-01T02:15:28.940Z,0
2018-01-01T02:16:29.174Z,0
2018-01-01T02:17:29.452Z,0
2018-01-01T02:18:29.447Z,0
2018-01-01T02:19:29.421Z,0
2018-01-01T02:20:29.124Z,0
2018-01-01T02:21:29.657Z,0
2018-01-01T02:22:29.103Z,0
2018-01-01T02:23:29.135Z,0
2018-01-01T02:24:29.368Z,0
2018-01-01T02:25:29.355Z,0
2018-01-01T02:26:29.060Z,0
2018-01-01T02:27:29.321Z,0
2018-01-01T02:28:29.025Z,0
2018-01-01T02:29:29.035Z,0
2018-01-01T02:30:29.290Z,0
2018-01-01T02:31:29.302Z,0
2018-01-01T02:32:28.730Z,0
2018-01-01T02:33:29.516Z,0
2018-01-01T02:34:28.684Z,0
2018-01-01T02:35:29.239Z,0
2018-01-01T02:36:29.252Z,0
2018-01-01T02:37:28.916Z,0
2018-01-01T02:38:28.652Z,0
2018-01-01T02:39:29.440Z,0
2018-01-01T02:40:28.891Z,0
2018-01-01T02:41:29.161Z,0
2018-01-01T02:42:28.591Z,0
2018-01-01T02:43:28.850Z,0
2018-01-01T02:44:28.839Z,0
2018-01-01T02:45:29.091Z,0
2018-01-01T02:46:28.809Z,0
2018-01-01T02:47:29.340Z,0
2018-01-01T02:48:29.052Z,0
2018-01-01T02:49:28.502Z,0
2018-01-01T02:50:29.054Z,0
2018-01-01T02:51:28.801Z,0
2018-01-01T02:52:28.464Z,0
2018-01-01T02:53:29.285Z,0
2018-01-01T02:54:28.717Z,0
2018-01-01T02:55:28.982Z,0
2018-01-01T02:56:28.692Z,0
2018-01-01T02:57:28.406Z,0
2018-01-01T02:58:28.933Z,0
2018-01-01T02:59:29.196Z,0
2018-01-01T03:00:28.658Z,0
2018-01-01T03:01:28.644Z,0
2018-01-01T03:02:28.612Z,0
2018-01-01T03:03:28.869Z,0
2018-01-01T03:04:28.591Z,0
2018-01-01T03:05:28.579Z,0
2018-01-01T03:06:28.581Z,0
2018-01-01T03:07:28.289Z,0
2018-01-01T03:08:28.295Z,0
2018-01-01T03:09:28.259Z,0
2018-01-01T03:10:28.514Z,0
2018-01-01T03:11:28.773Z,0
2018-01-01T03:12:28.493Z,0
2018-01-01T03:13:28.210Z,0
2018-01-01T03:14:28.480Z,0
2018-01-01T03:15:28.750Z,0
2018-01-01T03:16:28.443Z,0
2018-01-01T03:17:28.440Z,0
2018-01-01T03:18:28.467Z,0
2018-01-01T03:19:28.409Z,0
2018-01-01T03:20:28.674Z,0
2018-01-01T03:21:28.407Z,0
2018-01-01T03:22:28.380Z,0
2018-01-01T03:23:28.897Z,0
2018-01-01T03:24:28.344Z,0
2018-01-01T03:25:28.601Z,0
2018-01-01T03:26:28.322Z,0
2018-01-01T03:27:28.604Z,0
2018-01-01T03:28:28.029Z,0
2018-01-01T03:29:28.299Z,0
2018-01-01T03:30:28.831Z,0
2018-01-01T03:31:28.002Z,0
2018-01-01T03:32:27.978Z,0
2018-01-01T03:33:28.235Z,0
2018-01-01T03:34:28.767Z,0
2018-01-01T03:35:27.960Z,0
2018-01-01T03:36:28.468Z,0
2018-01-01T03:37:27.926Z,0
2018-01-01T03:38:27.904Z,0
2018-01-01T03:39:28.168Z,0
2018-01-01T03:40:27.882Z,0
2018-01-01T03:41:27.870Z,0
2018-01-01T03:42:28.138Z,0
2018-01-01T03:43:28.389Z,0
2018-01-01T03:44:27.832Z,0
2018-01-01T03:45:27.818Z,0
2018-01-01T03:46:28.356Z,0
2018-01-01T03:47:28.066Z,0
2018-01-01T03:48:28.347Z,0
2018-01-01T03:49:27.772Z,0
2018-01-01T03:50:27.758Z,0
2018-01-01T03:51:28.555Z,0
2018-01-01T03:52:28.040Z,0
2018-01-01T03:53:28.262Z,0
2018-01-01T03:54:28.269Z,0
2018-01-01T03:55:28.508Z,0
2018-01-01T03:56:28.234Z,0
2018-01-01T03:57:27.674Z,0
2018-01-01T03:58:28.242Z,0
2018-01-01T03:59:27.927Z,0
2018-01-01T04:00:28.197Z,0
2018-01-01T04:01:28.723Z,0
2018-01-01T04:02:28.160Z,0
2018-01-01T04:03:28.166Z,0
2018-01-01T04:04:27.859Z,0
2018-01-01T04:05:28.139Z,0
2018-01-01T04:06:28.371Z,0
2018-01-01T04:07:27.833Z,0
2018-01-01T04:08:28.080Z,0
2018-01-01T04:09:27.793Z,0
2018-01-01T04:10:27.513Z,0
2018-01-01T04:11:27.499Z,0
2018-01-01T04:12:28.056Z,0
2018-01-01T04:13:27.742Z,0
2018-01-01T04:14:27.786Z,0
2018-01-01T04:15:27.453Z,0
2018-01-01T04:16:28.001Z,0
2018-01-01T04:17:27.425Z,0
2018-01-01T04:18:27.981Z,0
2018-01-01T04:19:27.682Z,0
2018-01-01T04:20:28.219Z,0
2018-01-01T04:21:27.921Z,0
2018-01-01T04:22:27.919Z,0
2018-01-01T04:23:27.625Z,0
2018-01-01T04:24:27.928Z,0
2018-01-01T04:25:28.198Z,0
2018-01-01T04:26:28.120Z,0
2018-01-01T04:27:27.571Z,0
2018-01-01T04:28:27.561Z,0
2018-01-01T04:29:27.812Z,0
2018-01-01T04:30:27.270Z,0
2018-01-01T04:31:28.084Z,0
2018-01-01T04:32:27.511Z,0
2018-01-01T04:33:27.769Z,0
2018-01-01T04:34:27.814Z,0
2018-01-01T04:35:27.468Z,0
2018-01-01T04:36:27.732Z,0
2018-01-01T04:37:27.175Z,0
2018-01-01T04:38:27.724Z,0
2018-01-01T04:39:27.424Z,0
2018-01-01T04:40:27.963Z,0
2018-01-01T04:41:27.398Z,0
2018-01-01T04:42:27.392Z,0
2018-01-01T04:43:27.376Z,0
2018-01-01T04:44:27.627Z,0
2018-01-01T04:45:27.347Z,0
2018-01-01T04:46:27.342Z,0
2018-01-01T04:47:27.877Z,0
2018-01-01T04:48:27.885Z,0
2018-01-01T04:49:27.044Z,0
2018-01-01T04:50:27.558Z,0
2018-01-01T04:51:27.541Z,0
2018-01-01T04:52:27.259Z,0
2018-01-01T04:53:26.977Z,0
2018-01-01T04:54:27.234Z,0
2018-01-01T04:55:27.243Z,0
2018-01-01T04:56:27.211Z,0
2018-01-01T04:57:27.216Z,0
2018-01-01T04:58:27.474Z,0
2018-01-01T04:59:27.444Z,0
2018-01-01T05:00:27.431Z,0
2018-01-01T05:01:27.150Z,0
2018-01-01T05:02:26.862Z,0
2018-01-01T05:03:27.390Z,0
2018-01-01T05:04:26.837Z,0
2018-01-01T05:05:26.825Z,0
2018-01-01T05:06:27.377Z,0
2018-01-01T05:07:27.336Z,0
2018-01-01T05:08:27.336Z,0
2018-01-01T05:09:27.582Z,0
2018-01-01T05:10:27.302Z,0
2018-01-01T05:11:27.570Z,0
2018-01-01T05:12:27.004Z,0
2018-01-01T05:13:27.271Z,0
2018-01-01T05:14:26.980Z,0
2018-01-01T05:15:27.506Z,0
2018-01-01T05:16:27.228Z,0
2018-01-01T05:17:27.212Z,0
2018-01-01T05:18:26.929Z,0
2018-01-01T05:19:27.743Z,0
2018-01-01T05:20:26.908Z,0
2018-01-01T05:21:26.889Z,0
2018-01-01T05:22:26.631Z,0
2018-01-01T05:23:26.866Z,0
2018-01-01T05:24:26.869Z,0
2018-01-01T05:25:26.576Z,0
2018-01-01T05:26:26.825Z,0
2018-01-01T05:27:26.544Z,0
2018-01-01T05:28:27.076Z,0
2018-01-01T05:29:26.796Z,0
2018-01-01T05:30:27.050Z,0
2018-01-01T05:31:27.049Z,0
2018-01-01T05:32:26.762Z,0
2018-01-01T05:33:27.361Z,0
2018-01-01T05:34:26.451Z,0
2018-01-01T05:35:26.988Z,0
2018-01-01T05:36:26.973Z,0
2018-01-01T05:37:26.684Z,0
2018-01-01T05:38:27.217Z,0
2018-01-01T05:39:26.984Z,0
2018-01-01T05:40:26.646Z,0
2018-01-01T05:41:26.363Z,0
2018-01-01T05:42:26.352Z,0
2018-01-01T05:43:26.886Z,0
2018-01-01T05:44:26.886Z,0
2018-01-01T05:45:26.587Z,0
2018-01-01T05:46:26.842Z,0
2018-01-01T05:47:26.302Z,0
2018-01-01T05:48:26.547Z,0
2018-01-01T05:49:27.075Z,0
2018-01-01T05:50:26.516Z,0
2018-01-01T05:51:26.234Z,0
2018-01-01T05:52:27.341Z,0
2018-01-01T05:53:26.766Z,0
2018-01-01T05:54:26.734Z,0
2018-01-01T05:55:27.001Z,0
2018-01-01T05:56:26.164Z,0
2018-01-01T05:57:26.702Z,0
2018-01-01T05:58:26.435Z,0
2018-01-01T05:59:26.398Z,0
2018-01-01T06:00:26.387Z,0
2018-01-01T06:01:26.642Z,0
2018-01-01T06:02:26.377Z,0
2018-01-01T06:03:26.073Z,0
2018-01-01T06:04:26.654Z,0
2018-01-01T06:05:26.871Z,0
2018-01-01T06:06:26.584Z,0
2018-01-01T06:07:26.562Z,0
2018-01-01T06:08:26.008Z,0
2018-01-01T06:09:26.543Z,0
2018-01-01T06:10:26.798Z,0
2018-01-01T06:11:26.238Z,0
2018-01-01T06:12:26.225Z,0
2018-01-01T06:13:26.754Z,0
2018-01-01T06:14:26.523Z,0
2018-01-01T06:15:26.462Z,0
2018-01-01T06:16:26.728Z,0
2018-01-01T06:17:26.465Z,0
2018-01-01T06:18:25.882Z,0
2018-01-01T06:19:26.399Z,0
2018-01-01T06:20:26.388Z,0
2018-01-01T06:21:26.110Z,0
2018-01-01T06:22:25.821Z,0
2018-01-01T06:23:25.811Z,0
2018-01-01T06:24:26.090Z,0
2018-01-01T06:25:25.793Z,0
2018-01-01T06:26:26.071Z,0
2018-01-01T06:27:26.028Z,0
2018-01-01T06:28:26.009Z,0
2018-01-01T06:29:26.266Z,0
2018-01-01T06:30:25.988Z,0
2018-01-01T06:31:26.248Z,0
2018-01-01T06:32:25.960Z,0
2018-01-01T06:33:25.943Z,0
2018-01-01T06:34:25.940Z,0
2018-01-01T06:35:25.690Z,0
2018-01-01T06:36:25.907Z,0
2018-01-01T06:37:26.441Z,0
2018-01-01T06:38:26.147Z,0
2018-01-01T06:39:25.863Z,0
2018-01-01T06:40:25.581Z,0
2018-01-01T06:41:26.116Z,0
2018-01-01T06:42:26.096Z,0
2018-01-01T06:43:25.817Z,0
2018-01-01T06:44:26.064Z,0
2018-01-01T06:45:26.069Z,0
2018-01-01T06:46:26.317Z,0
2018-01-01T06:47:25.486Z,0
2018-01-01T06:48:25.478Z,0
2018-01-01T06:49:25.727Z,0
2018-01-01T06:50:25.999Z,0
2018-01-01T06:51:26.515Z,0
2018-01-01T06:52:25.959Z,0
2018-01-01T06:53:25.695Z,0
2018-01-01T06:54:25.391Z,0
2018-01-01T06:55:25.378Z,0
2018-01-01T06:56:25.922Z,0
2018-01-01T06:57:26.161Z,0
2018-01-01T06:58:25.652Z,0
2018-01-01T06:59:25.868Z,0
2018-01-01T07:00:25.598Z,0
2018-01-01T07:01:25.299Z,0
2018-01-01T07:02:25.558Z,0
2018-01-01T07:03:25.563Z,0
2018-01-01T07:04:25.523Z,0
2018-01-01T07:05:25.520Z,0
2018-01-01T07:06:25.516Z,0
2018-01-01T07:07:25.237Z,0
2018-01-01T07:08:25.197Z,0
2018-01-01T07:09:25.455Z,0
2018-01-01T07:10:25.734Z,0
2018-01-01T07:11:25.429Z,5
2018-01-01T07:12:25.685Z,5
2018-01-01T07:13:25.677Z,5
2018-01-01T07:14:25.387Z,5
2018-01-01T07:15:25.387Z,5
2018-01-01T07:16:25.629Z,5
2018-01-01T07:17:25.365Z,5
2018-01-01T07:18:25.644Z,5
2018-01-01T07:19:25.594Z,5
2018-01-01T07:20:25.581Z,10
2018-01-01T07:21:25.044Z,10
2018-01-01T07:22:25.548Z,10
2018-01-01T07:23:25.264Z,10
2018-01-01T07:24:25.275Z,10
2018-01-01T07:25:25.525Z,10
2018-01-01T07:26:25.236Z,10
2018-01-01T07:27:25.551Z,15
2018-01-01T07:28:25.196Z,15
2018-01-01T07:29:25.469Z,15
2018-01-01T07:30:24.898Z,15
2018-01-01T07:31:25.421Z,15
2018-01-01T07:32:25.421Z,20
2018-01-01T07:33:25.125Z,20
2018-01-01T07:34:25.131Z,25
2018-01-01T07:35:25.185Z,25
2018-01-01T07:36:25.623Z,20
2018-01-01T07:37:25.068Z,25
2018-01-01T07:38:25.327Z,20
2018-01-01T07:39:25.321Z,20
2018-01-01T07:40:24.760Z,15
2018-01-01T07:41:25.036Z,15
2018-01-01T07:42:25.281Z,15
2018-01-01T07:43:24.991Z,20
2018-01-01T07:44:25.511Z,15
2018-01-01T07:45:24.688Z,15
2018-01-01T07:46:25.261Z,15
2018-01-01T07:47:24.955Z,10
2018-01-01T07:48:24.951Z,20
2018-01-01T07:49:24.902Z,25
2018-01-01T07:50:25.438Z,30
2018-01-01T07:51:24.875Z,30
2018-01-01T07:52:24.873Z,30
2018-01-01T07:53:24.848Z,25
2018-01-01T07:54:25.377Z,30
2018-01-01T07:55:24.603Z,20
2018-01-01T07:56:25.372Z,15
2018-01-01T07:57:24.791Z,15
2018-01-01T07:58:24.519Z,15
2018-01-01T07:59:24.761Z,15
2018-01-01T08:00:24.768Z,15
2018-01-01T08:01:24.752Z,10
2018-01-01T08:02:24.736Z,10
2018-01-01T08:03:25.003Z,10
2018-01-01T08:04:24.970Z,10
2018-01-01T08:05:24.688Z,10
2018-01-01T08:06:24.965Z,20
2018-01-01T08:07:24.655Z,10
2018-01-01T08:08:24.912Z,20
2018-01-01T08:09:25.179Z,20
2018-01-01T08:10:24.611Z,25
2018-01-01T08:11:24.867Z,15
2018-01-01T08:12:25.140Z,30
2018-01-01T08:13:24.850Z,45
2018-01-01T08:14:25.114Z,40
2018-01-01T08:15:24.550Z,40
2018-01-01T08:16:24.532Z,40
2018-01-01T08:17:24.274Z,45
2018-01-01T08:18:24.500Z,55
2018-01-01T08:19:24.488Z,60
2018-01-01T08:20:24.231Z,60
2018-01-01T08:21:24.461Z,65
2018-01-01T08:22:24.443Z,65
2018-01-01T08:23:24.163Z,55
2018-01-01T08:24:24.716Z,55
2018-01-01T08:25:24.946Z,60
2018-01-01T08:26:24.660Z,65
2018-01-01T08:27:24.373Z,55
2018-01-01T08:28:25.174Z,45
2018-01-01T08:29:24.078Z,60
2018-01-01T08:30:24.338Z,70
2018-01-01T08:31:24.322Z,60
2018-01-01T08:32:24.307Z,55
2018-01-01T08:33:24.563Z,60
2018-01-01T08:34:24.279Z,65
2018-01-01T08:35:24.546Z,65
2018-01-01T08:36:24.259Z,65
2018-01-01T08:37:24.538Z,60
2018-01-01T08:38:24.499Z,60
2018-01-01T08:39:24.484Z,60
2018-01-01T08:40:24.192Z,60
2018-01-01T08:41:24.178Z,55
2018-01-01T08:42:23.903Z,60
2018-01-01T08:43:24.183Z,60
2018-01-01T08:44:24.420Z,65
2018-01-01T08:45:23.865Z,85
2018-01-01T08:46:24.108Z,85
2018-01-01T08:47:23.826Z,80
2018-01-01T08:48:23.812Z,85
2018-01-01T08:49:24.066Z,85
2018-01-01T08:50:24.052Z,80
2018-01-01T08:51:24.056Z,80
2018-01-01T08:52:24.302Z,85
2018-01-01T08:53:24.286Z,75
2018-01-01T08:54:23.997Z,70
2018-01-01T08:55:23.984Z,70
2018-01-01T08:56:24.255Z,70
2018-01-01T08:57:23.961Z,65
2018-01-01T08:58:23.968Z,65
2018-01-01T08:59:24.487Z,45
2018-01-01T09:00:23.914Z,45
2018-01-01T09:01:24.180Z,65
2018-01-01T09:02:23.881Z,65
2018-01-01T09:03:23.887Z,55
2018-01-01T09:04:24.716Z,75
2018-01-01T09:05:24.111Z,75
2018-01-01T09:06:23.557Z,65
2018-01-01T09:07:24.083Z,90
2018-01-01T09:08:24.356Z,95
2018-01-01T09:09:24.064Z,90
2018-01-01T09:10:23.771Z,95
2018-01-01T09:11:23.758Z,110
2018-01-01T09:12:23.473Z,125
2018-01-01T09:13:23.999Z,135
2018-01-01T09:14:24.268Z,125
2018-01-01T09:15:24.241Z,125
2018-01-01T09:16:23.963Z,125
2018-01-01T09:17:23.962Z,110
2018-01-01T09:18:24.200Z,130
2018-01-01T09:19:23.658Z,135
2018-01-01T09:20:23.900Z,115
2018-01-01T09:21:23.887Z,130
2018-01-01T09:22:23.607Z,120
2018-01-01T09:23:23.856Z,110
2018-01-01T09:24:23.605Z,130
2018-01-01T09:25:23.570Z,125
2018-01-01T09:26:23.548Z,140
2018-01-01T09:27:24.082Z,120
2018-01-01T09:28:23.587Z,105
2018-01-01T09:29:23.780Z,130
2018-01-01T09:30:23.498Z,130
2018-01-01T09:31:23.753Z,105
2018-01-01T09:32:23.221Z,90
2018-01-01T09:33:23.463Z,110
2018-01-01T09:34:23.443Z,150
2018-01-01T09:35:23.456Z,135
2018-01-01T09:36:23.965Z,130
2018-01-01T09:37:23.129Z,130
2018-01-01T09:38:23.387Z,140
2018-01-01T09:39:23.387Z,135
2018-01-01T09:40:23.089Z,170
2018-01-01T09:41:23.908Z,170
2018-01-01T09:42:23.612Z,190
2018-01-01T09:43:23.049Z,135
2018-01-01T09:44:23.308Z,105
2018-01-01T09:45:23.559Z,110
2018-01-01T09:46:23.550Z,105
2018-01-01T09:47:23.266Z,100
2018-01-01T09:48:24.063Z,100
2018-01-01T09:49:23.512Z,75
2018-01-01T09:50:23.541Z,75
2018-01-01T09:51:23.793Z,65
2018-01-01T09:52:23.470Z,65
2018-01-01T09:53:23.461Z,75
2018-01-01T09:54:23.168Z,70
2018-01-01T09:55:23.155Z,90
2018-01-01T09:56:23.415Z,105
2018-01-01T09:57:22.881Z,135
2018-01-01T09:58:23.390Z,125
2018-01-01T09:59:23.115Z,95
2018-01-01T10:00:23.369Z,100
2018-01-01T10:01:23.085Z,90
2018-01-01T10:02:23.328Z,105
2018-01-01T10:03:23.051Z,90
2018-01-01T10:04:23.589Z,85
2018-01-01T10:05:23.288Z,95
2018-01-01T10:06:23.544Z,100
2018-01-01T10:07:23.020Z,100
2018-01-01T10:08:23.515Z,120
2018-01-01T10:09:22.964Z,125
2018-01-01T10:10:22.697Z,100
2018-01-01T10:11:23.219Z,80
2018-01-01T10:12:23.229Z,95
2018-01-01T10:13:22.911Z,100
2018-01-01T10:14:22.911Z,70
2018-01-01T10:15:22.614Z,110
2018-01-01T10:16:22.884Z,105
2018-01-01T10:17:22.891Z,115
2018-01-01T10:18:23.796Z,120
2018-01-01T10:19:22.560Z,145
2018-01-01T10:20:23.086Z,135
2018-01-01T10:21:23.074Z,100
2018-01-01T10:22:23.113Z,110
2018-01-01T10:23:22.783Z,135
2018-01-01T10:24:23.028Z,170
2018-01-01T10:25:22.474Z,195
2018-01-01T10:26:22.729Z,150
2018-01-01T10:27:22.721Z,165
2018-01-01T10:28:23.004Z,145
2018-01-01T10:29:23.234Z,115
2018-01-01T10:30:22.408Z,120
2018-01-01T10:31:22.687Z,135
2018-01-01T10:32:23.191Z,145
2018-01-01T10:33:22.904Z,185
2018-01-01T10:34:22.358Z,170
2018-01-01T10:35:22.888Z,135
2018-01-01T10:36:22.600Z,125
2018-01-01T10:37:23.164Z,140
2018-01-01T10:38:22.861Z,95
2018-01-01T10:39:22.890Z,150
2018-01-01T10:40:22.274Z,160
2018-01-01T10:41:22.535Z,125
2018-01-01T10:42:22.785Z,150
2018-01-01T10:43:22.774Z,105
2018-01-01T10:44:22.488Z,80
2018-01-01T10:45:22.752Z,125
2018-01-01T10:46:22.205Z,100
2018-01-01T10:47:22.490Z,110
2018-01-01T10:48:22.728Z,140
2018-01-01T10:49:22.421Z,90
2018-01-01T10:50:22.950Z,85
2018-01-01T10:51:22.665Z,75
2018-01-01T10:52:22.666Z,110
2018-01-01T10:53:22.392Z,130
2018-01-01T10:54:22.357Z,100
2018-01-01T10:55:22.617Z,105
2018-01-01T10:56:22.325Z,110
2018-01-01T10:57:22.060Z,105
2018-01-01T10:58:22.034Z,90
2018-01-01T10:59:22.837Z,70
2018-01-01T11:00:22.272Z,85
2018-01-01T11:01:22.533Z,75
2018-01-01T11:02:22.546Z,65
2018-01-01T11:03:21.965Z,120
2018-01-01T11:04:22.220Z,145
2018-01-01T11:05:21.935Z,150
2018-01-01T11:06:21.995Z,115
2018-01-01T11:07:22.522Z,125
2018-01-01T11:08:22.169Z,115
2018-01-01T11:09:22.155Z,70
2018-01-01T11:10:22.413Z,90
2018-01-01T11:11:22.153Z,170
2018-01-01T11:12:22.135Z,170
2018-01-01T11:13:21.845Z,175
2018-01-01T11:14:22.087Z,130
2018-01-01T11:15:22.378Z,105
2018-01-01T11:16:22.560Z,105
2018-01-01T11:17:22.603Z,110
2018-01-01T11:18:21.828Z,105
2018-01-01T11:19:22.030Z,100
2018-01-01T11:20:22.549Z,95
2018-01-01T11:21:22.006Z,75
2018-01-01T11:22:21.732Z,70
2018-01-01T11:23:22.008Z,80
2018-01-01T11:24:22.003Z,90
2018-01-01T11:25:22.210Z,115
2018-01-01T11:26:22.199Z,115
2018-01-01T11:27:21.910Z,125
2018-01-01T11:28:22.183Z,105
2018-01-01T11:29:22.339Z,165
2018-01-01T11:30:21.921Z,150
2018-01-01T11:31:22.397Z,135
2018-01-01T11:32:22.136Z,135
2018-01-01T11:33:21.963Z,125
2018-01-01T11:34:21.830Z,115
2018-01-01T11:35:22.810Z,115
2018-01-01T11:36:22.554Z,140
2018-01-01T11:37:22.379Z,155
2018-01-01T11:38:22.253Z,170
2018-01-01T11:39:22.077Z,175
2018-01-01T11:40:22.010Z,190
2018-01-01T11:41:21.720Z,165
2018-01-01T11:42:22.570Z,120
2018-01-01T11:43:21.683Z,100
2018-01-01T11:44:22.254Z,125
2018-01-01T11:45:21.387Z,135
2018-01-01T11:46:21.928Z,155
2018-01-01T11:47:21.944Z,165
2018-01-01T11:48:22.176Z,140
2018-01-01T11:49:21.919Z,130
2018-01-01T11:50:22.139Z,105
2018-01-01T11:51:21.584Z,110
2018-01-01T11:52:21.559Z,100
2018-01-01T11:53:21.563Z,95
2018-01-01T11:54:21.275Z,100
2018-01-01T11:55:21.832Z,105
2018-01-01T11:56:21.548Z,100
2018-01-01T11:57:21.528Z,95
2018-01-01T11:58:21.230Z,100
2018-01-01T11:59:21.581Z,105
2018-01-01T12:00:21.177Z,105
2018-01-01T12:01:21.228Z,110
2018-01-01T12:02:21.763Z,115
2018-01-01T12:03:21.449Z,120
2018-01-01T12:04:21.145Z,130
2018-01-01T12:05:21.581Z,160
2018-01-01T12:06:22.347Z,155
2018-01-01T12:07:21.132Z,150
2018-01-01T12:08:21.161Z,140
2018-01-01T12:09:21.684Z,150
2018-01-01T12:10:21.108Z,135
2018-01-01T12:11:21.105Z,135
2018-01-01T12:12:24.618Z,125
2018-01-01T12:13:21.085Z,130
2018-01-01T12:14:21.319Z,180
2018-01-01T12:15:21.524Z,140
2018-01-01T12:16:21.047Z,120
2018-01-01T12:17:21.131Z,145
2018-01-01T12:18:21.748Z,130
2018-01-01T12:19:21.339Z,100
2018-01-01T12:20:21.537Z,85
2018-01-01T12:21:21.494Z,85
2018-01-01T12:22:21.576Z,80
2018-01-01T12:23:21.794Z,80
2018-01-01T12:24:21.433Z,80
2018-01-01T12:25:21.686Z,105
2018-01-01T12:26:21.169Z,95
2018-01-01T12:27:21.171Z,90
2018-01-01T12:28:21.955Z,100
2018-01-01T12:29:21.665Z,85
2018-01-01T12:30:21.389Z,85
2018-01-01T12:31:21.354Z,85
2018-01-01T12:32:36.008Z,80
2018-01-01T12:33:20.784Z,80
2018-01-01T12:34:21.290Z,100
2018-01-01T12:35:21.295Z,105
2018-01-01T12:36:20.953Z,100
2018-01-01T12:37:20.692Z,100
2018-01-01T12:38:21.015Z,110
2018-01-01T12:39:21.336Z,115
2018-01-01T12:40:21.026Z,95
2018-01-01T12:41:21.791Z,85
2018-01-01T12:42:21.285Z,85
2018-01-01T12:43:21.221Z,95
2018-01-01T12:44:21.566Z,95
2018-01-01T12:45:21.206Z,105
2018-01-01T12:46:20.923Z,125
2018-01-01T12:47:21.163Z,130
2018-01-01T12:48:20.607Z,120
2018-01-01T12:49:20.884Z,135
2018-01-01T12:50:20.898Z,120
2018-01-01T12:51:20.815Z,135
2018-01-01T12:52:20.677Z,130
2018-01-01T12:53:20.660Z,125
2018-01-01T12:54:20.536Z,120
2018-01-01T12:55:20.977Z,125
2018-01-01T12:56:20.773Z,115
2018-01-01T12:57:20.404Z,130
2018-01-01T12:58:21.291Z,115
2018-01-01T12:59:20.703Z,140
2018-01-01T13:00:21.059Z,145
2018-01-01T13:01:20.727Z,140
2018-01-01T13:02:20.771Z,120
2018-01-01T13:03:20.849Z,125
2018-01-01T13:04:20.848Z,115
2018-01-01T13:05:21.102Z,115
2018-01-01T13:06:21.170Z,110
2018-01-01T13:07:20.819Z,75
2018-01-01T13:08:20.497Z,95
2018-01-01T13:09:20.655Z,105
2018-01-01T13:10:20.533Z,100
2018-01-01T13:11:21.021Z,70
2018-01-01T13:12:20.405Z,70
2018-01-01T13:13:20.623Z,80
2018-01-01T13:14:20.582Z,85
2018-01-01T13:15:20.605Z,95
2018-01-01T13:16:20.660Z,70
2018-01-01T13:17:20.627Z,60
2018-01-01T13:18:20.692Z,70
2018-01-01T13:19:20.216Z,80
2018-01-01T13:20:20.599Z,65
2018-01-01T13:21:20.704Z,70
2018-01-01T13:22:20.908Z,70
2018-01-01T13:23:20.908Z,65
2018-01-01T13:24:20.190Z,75
2018-01-01T13:25:20.117Z,70
2018-01-01T13:26:20.537Z,65
2018-01-01T13:27:21.173Z,70
2018-01-01T13:28:20.677Z,70
2018-01-01T13:29:20.041Z,60
2018-01-01T13:30:20.704Z,45
2018-01-01T13:31:20.991Z,55
2018-01-01T13:32:20.331Z,55
2018-01-01T13:33:20.021Z,60
2018-01-01T13:34:20.541Z,65
2018-01-01T13:35:20.783Z,50
2018-01-01T13:36:20.158Z,50
2018-01-01T13:37:20.019Z,50
2018-01-01T13:38:21.074Z,55
2018-01-01T13:39:20.548Z,55
2018-01-01T13:40:20.439Z,60
2018-01-01T13:41:19.972Z,60
2018-01-01T13:42:20.523Z,65
2018-01-01T13:43:20.508Z,65
2018-01-01T13:44:20.458Z,65
2018-01-01T13:45:20.497Z,80
2018-01-01T13:46:20.602Z,75
2018-01-01T13:47:20.503Z,75
2018-01-01T13:48:19.968Z,75
2018-01-01T13:49:20.536Z,85
2018-01-01T13:50:19.960Z,80
2018-01-01T13:51:20.614Z,75
2018-01-01T13:52:19.930Z,80
2018-01-01T13:53:19.656Z,75
2018-01-01T13:54:19.619Z,75
2018-01-01T13:55:20.214Z,65
2018-01-01T13:56:19.904Z,60
2018-01-01T13:57:20.104Z,55
2018-01-01T13:58:19.838Z,60
2018-01-01T13:59:20.302Z,65
2018-01-01T14:00:20.101Z,70
2018-01-01T14:01:20.341Z,75
2018-01-01T14:02:19.488Z,75
2018-01-01T14:03:19.769Z,70
2018-01-01T14:04:20.044Z,65
2018-01-01T14:05:20.578Z,55
2018-01-01T14:06:19.992Z,55
2018-01-01T14:07:20.231Z,55
2018-01-01T14:08:19.734Z,55
2018-01-01T14:09:19.720Z,55
2018-01-01T14:10:20.280Z,50
2018-01-01T14:11:20.312Z,50
2018-01-01T14:12:19.769Z,50
2018-01-01T14:13:19.851Z,50
2018-01-01T14:14:19.478Z,50
2018-01-01T14:15:20.358Z,50
2018-01-01T14:16:19.780Z,50
2018-01-01T14:17:19.837Z,50
2018-01-01T14:18:19.408Z,50
2018-01-01T14:19:19.719Z,50
2018-01-01T14:20:19.731Z,45
2018-01-01T14:21:19.591Z,45
2018-01-01T14:22:19.930Z,45
2018-01-01T14:23:20.022Z,45
2018-01-01T14:24:20.210Z,45